Bowerman Airport Hoquiam US
ICAO: KHQM
IATA: HQM
Category: Medium
Scheduled Services: No

Elevation: 18 ft
TransAlt. 18000 ft.

Airport Communications:
ASOS:135.775
SEATTLE CNTR:128.3
SEATTLE RDO:122.2
CTAF/UNICOM:122.7

KHQM Zoom In..

If you have problems with the map follow the link
https://www.worldairports.se/pages/airport.php?
ICAO=KHQM

Runways:

(A) RW 06 length 5000 ft width 150 ft
---- / hdg 60

(B) RW 24 length 5000 ft width 150 ft
ILS 108.70 / hdg 240

Location; KHQM
Day. 08 / Time. 17.53 Zulu
* Altimeter: 30.08
* Temperature: 08° c. 46.4°f.
* Wind from: 140° Speed 04 kn.
Dewpoint: 08° c.
Visibility: 10 Statute Miles.
Clouds: Overcast 200 ft.

KHQM 081753Z AUTO 14004KT 10SM OVC002 08/08 A3008 RMK AO2 SLP191 T00780078 10078 20072 53022 $


Wind From 140°
Speed 04 kn.

 
 
jpsmedia worldairports.se 2019   terms of use